Terminal Aerodrome Forecast
Issued by NWS St Louis, MO

Home | Current Version | Previous Version | Text Only | Print | Product List | Glossary On
Versions: 1 2 3 4 5 6 7 8 9 10 11 12 13 14 15 16 17 18 19 20 21 22 23 24 25 26 27 28 29 30
000
FTUS43 KLSX 252300
TAFSTL
TAF
KSTL 252326Z 2600/2706 04008KT 6SM -RA BR BKN007 OVC015
     FM260200 03010KT P6SM OVC007
     FM261300 04010KT P6SM BKN035
     FM270000 05005KT P6SM SCT250=

USA.gov is the U.S. government's official web portal to all federal, state and local government web resources and services.